sensor_id;sensor_type;location;lat;lon;timestamp;temperature;humidity
68439;SHT31;55421;51.600;5.718;2023-03-23T00:01:17;12.56;81.55
68439;SHT31;55421;51.600;5.718;2023-03-23T00:03:47;12.57;81.50
68439;SHT31;55421;51.600;5.718;2023-03-23T00:06:17;12.59;81.41
68439;SHT31;55421;51.600;5.718;2023-03-23T00:08:46;12.59;81.33
68439;SHT31;55421;51.600;5.718;2023-03-23T00:11:19;12.59;81.40
68439;SHT31;55421;51.600;5.718;2023-03-23T00:13:49;12.60;81.35
68439;SHT31;55421;51.600;5.718;2023-03-23T00:16:19;12.60;81.30
68439;SHT31;55421;51.600;5.718;2023-03-23T00:18:57;12.61;81.30
68439;SHT31;55421;51.600;5.718;2023-03-23T00:21:31;12.63;81.27
68439;SHT31;55421;51.600;5.718;2023-03-23T00:24:08;12.63;81.17
68439;SHT31;55421;51.600;5.718;2023-03-23T00:26:39;12.63;81.12
68439;SHT31;55421;51.600;5.718;2023-03-23T00:29:08;12.62;81.12
68439;SHT31;55421;51.600;5.718;2023-03-23T00:31:41;12.60;81.10
68439;SHT31;55421;51.600;5.718;2023-03-23T00:34:16;12.61;81.10
68439;SHT31;55421;51.600;5.718;2023-03-23T00:36:47;12.62;81.10
68439;SHT31;55421;51.600;5.718;2023-03-23T00:39:16;12.62;81.08
68439;SHT31;55421;51.600;5.718;2023-03-23T00:41:44;12.62;81.00
68439;SHT31;55421;51.600;5.718;2023-03-23T00:44:13;12.63;80.98
68439;SHT31;55421;51.600;5.718;2023-03-23T00:46:49;12.63;80.98
68439;SHT31;55421;51.600;5.718;2023-03-23T00:49:17;12.64;80.95
68439;SHT31;55421;51.600;5.718;2023-03-23T00:51:51;12.64;80.89
68439;SHT31;55421;51.600;5.718;2023-03-23T00:54:19;12.64;80.91
68439;SHT31;55421;51.600;5.718;2023-03-23T00:56:47;12.65;80.90
68439;SHT31;55421;51.600;5.718;2023-03-23T00:59:14;12.65;80.90
68439;SHT31;55421;51.600;5.718;2023-03-23T01:01:41;12.65;80.88
68439;SHT31;55421;51.600;5.718;2023-03-23T01:04:08;12.64;80.86
68439;SHT31;55421;51.600;5.718;2023-03-23T01:06:39;12.64;80.89
68439;SHT31;55421;51.600;5.718;2023-03-23T01:09:10;12.66;80.87
68439;SHT31;55421;51.600;5.718;2023-03-23T01:11:41;12.68;80.86
68439;SHT31;55421;51.600;5.718;2023-03-23T01:14:12;12.70;80.88
68439;SHT31;55421;51.600;5.718;2023-03-23T01:16:41;12.71;80.80
68439;SHT31;55421;51.600;5.718;2023-03-23T01:19:08;12.73;80.80
68439;SHT31;55421;51.600;5.718;2023-03-23T01:21:36;12.76;80.83
68439;SHT31;55421;51.600;5.718;2023-03-23T01:24:03;12.78;80.91
68439;SHT31;55421;51.600;5.718;2023-03-23T01:26:31;12.79;81.01
68439;SHT31;55421;51.600;5.718;2023-03-23T01:28:57;12.81;81.07
68439;SHT31;55421;51.600;5.718;2023-03-23T01:31:25;12.83;81.09
68439;SHT31;55421;51.600;5.718;2023-03-23T01:33:52;12.85;81.10
68439;SHT31;55421;51.600;5.718;2023-03-23T01:36:23;12.87;81.08
68439;SHT31;55421;51.600;5.718;2023-03-23T01:39:03;12.86;81.00
68439;SHT31;55421;51.600;5.718;2023-03-23T01:41:32;12.86;81.00
68439;SHT31;55421;51.600;5.718;2023-03-23T01:44:05;12.85;80.94
68439;SHT31;55421;51.600;5.718;2023-03-23T01:46:53;12.84;80.95
68439;SHT31;55421;51.600;5.718;2023-03-23T01:49:22;12.83;80.94
68439;SHT31;55421;51.600;5.718;2023-03-23T01:51:55;12.82;80.99
68439;SHT31;55421;51.600;5.718;2023-03-23T01:54:27;12.81;80.98
68439;SHT31;55421;51.600;5.718;2023-03-23T01:56:59;12.80;80.90
68439;SHT31;55421;51.600;5.718;2023-03-23T01:59:36;12.80;80.90
68439;SHT31;55421;51.600;5.718;2023-03-23T02:02:04;12.79;80.86
68439;SHT31;55421;51.600;5.718;2023-03-23T02:04:30;12.79;80.81
68439;SHT31;55421;51.600;5.718;2023-03-23T02:06:59;12.79;80.80
68439;SHT31;55421;51.600;5.718;2023-03-23T02:09:28;12.78;80.80
68439;SHT31;55421;51.600;5.718;2023-03-23T02:11:54;12.77;80.79
68439;SHT31;55421;51.600;5.718;2023-03-23T02:14:23;12.76;80.80
68439;SHT31;55421;51.600;5.718;2023-03-23T02:17:07;12.76;80.80
68439;SHT31;55421;51.600;5.718;2023-03-23T02:20:07;12.76;80.79
68439;SHT31;55421;51.600;5.718;2023-03-23T02:26:11;12.74;80.71
68439;SHT31;55421;51.600;5.718;2023-03-23T02:29:16;12.73;80.70
68439;SHT31;55421;51.600;5.718;2023-03-23T02:35:03;12.73;80.60
68439;SHT31;55421;51.600;5.718;2023-03-23T02:37:40;12.73;80.53
68439;SHT31;55421;51.600;5.718;2023-03-23T02:40:20;12.73;80.50
68439;SHT31;55421;51.600;5.718;2023-03-23T02:42:54;12.73;80.43
68439;SHT31;55421;51.600;5.718;2023-03-23T02:45:23;12.73;80.40
68439;SHT31;55421;51.600;5.718;2023-03-23T02:47:56;12.74;80.32
68439;SHT31;55421;51.600;5.718;2023-03-23T02:50:23;12.74;80.27
68439;SHT31;55421;51.600;5.718;2023-03-23T02:52:54;12.75;80.26
68439;SHT31;55421;51.600;5.718;2023-03-23T02:55:24;12.77;80.25
68439;SHT31;55421;51.600;5.718;2023-03-23T02:57:56;12.78;80.20
68439;SHT31;55421;51.600;5.718;2023-03-23T03:00:22;12.81;80.12
68439;SHT31;55421;51.600;5.718;2023-03-23T03:02:50;12.83;80.10
68439;SHT31;55421;51.600;5.718;2023-03-23T03:05:29;12.86;80.03
68439;SHT31;55421;51.600;5.718;2023-03-23T03:10:46;12.89;80.00
68439;SHT31;55421;51.600;5.718;2023-03-23T03:19:13;12.95;79.90
68439;SHT31;55421;51.600;5.718;2023-03-23T03:21:51;12.95;79.90
68439;SHT31;55421;51.600;5.718;2023-03-23T03:24:24;12.94;79.89
68439;SHT31;55421;51.600;5.718;2023-03-23T03:26:55;12.95;79.92
68439;SHT31;55421;51.600;5.718;2023-03-23T03:29:26;12.94;79.94
68439;SHT31;55421;51.600;5.718;2023-03-23T03:32:00;12.93;80.00
68439;SHT31;55421;51.600;5.718;2023-03-23T03:34:31;12.91;80.00
68439;SHT31;55421;51.600;5.718;2023-03-23T03:37:00;12.91;80.01
68439;SHT31;55421;51.600;5.718;2023-03-23T03:39:27;12.90;80.01
68439;SHT31;55421;51.600;5.718;2023-03-23T03:41:57;12.90;80.03
68439;SHT31;55421;51.600;5.718;2023-03-23T03:44:23;12.90;80.05
68439;SHT31;55421;51.600;5.718;2023-03-23T03:46:50;12.88;80.00
68439;SHT31;55421;51.600;5.718;2023-03-23T03:49:16;12.89;80.00
68439;SHT31;55421;51.600;5.718;2023-03-23T03:51:43;12.88;79.92
68439;SHT31;55421;51.600;5.718;2023-03-23T03:54:09;12.88;79.91
68439;SHT31;55421;51.600;5.718;2023-03-23T03:56:37;12.87;79.90
68439;SHT31;55421;51.600;5.718;2023-03-23T03:59:07;12.87;79.85
68439;SHT31;55421;51.600;5.718;2023-03-23T04:01:36;12.86;79.84
68439;SHT31;55421;51.600;5.718;2023-03-23T04:04:04;12.87;79.80
68439;SHT31;55421;51.600;5.718;2023-03-23T04:06:33;12.86;79.80
68439;SHT31;55421;51.600;5.718;2023-03-23T04:09:03;12.86;79.76
68439;SHT31;55421;51.600;5.718;2023-03-23T04:11:34;12.86;79.68
68439;SHT31;55421;51.600;5.718;2023-03-23T04:14:01;12.86;79.61
68439;SHT31;55421;51.600;5.718;2023-03-23T04:16:28;12.86;79.51
68439;SHT31;55421;51.600;5.718;2023-03-23T04:18:56;12.86;79.40
68439;SHT31;55421;51.600;5.718;2023-03-23T04:21:22;12.86;79.28
68439;SHT31;55421;51.600;5.718;2023-03-23T04:23:49;12.86;79.14
68439;SHT31;55421;51.600;5.718;2023-03-23T04:26:15;12.86;78.94
68439;SHT31;55421;51.600;5.718;2023-03-23T04:28:42;12.87;78.68
68439;SHT31;55421;51.600;5.718;2023-03-23T04:31:09;12.88;78.46
68439;SHT31;55421;51.600;5.718;2023-03-23T04:33:38;12.87;78.38
68439;SHT31;55421;51.600;5.718;2023-03-23T04:36:06;12.89;78.32
68439;SHT31;55421;51.600;5.718;2023-03-23T04:38:33;12.87;78.09
68439;SHT31;55421;51.600;5.718;2023-03-23T04:41:00;12.88;77.90
68439;SHT31;55421;51.600;5.718;2023-03-23T04:43:28;12.88;77.87
68439;SHT31;55421;51.600;5.718;2023-03-23T04:45:58;12.88;77.68
68439;SHT31;55421;51.600;5.718;2023-03-23T04:48:27;12.90;77.51
68439;SHT31;55421;51.600;5.718;2023-03-23T04:51:00;12.92;77.31
68439;SHT31;55421;51.600;5.718;2023-03-23T04:53:29;12.94;77.27
68439;SHT31;55421;51.600;5.718;2023-03-23T04:55:57;12.94;77.30
68439;SHT31;55421;51.600;5.718;2023-03-23T04:58:24;12.95;77.16
68439;SHT31;55421;51.600;5.718;2023-03-23T05:00:50;12.97;77.01
68439;SHT31;55421;51.600;5.718;2023-03-23T05:03:17;12.98;76.90
68439;SHT31;55421;51.600;5.718;2023-03-23T05:05:45;12.99;76.82
68439;SHT31;55421;51.600;5.718;2023-03-23T05:08:18;13.00;76.75
68439;SHT31;55421;51.600;5.718;2023-03-23T05:10:53;12.99;76.62
68439;SHT31;55421;51.600;5.718;2023-03-23T05:13:22;12.99;76.61
68439;SHT31;55421;51.600;5.718;2023-03-23T05:15:49;12.97;76.46
68439;SHT31;55421;51.600;5.718;2023-03-23T05:18:17;12.96;76.50
68439;SHT31;55421;51.600;5.718;2023-03-23T05:20:43;12.95;76.50
68439;SHT31;55421;51.600;5.718;2023-03-23T05:23:15;12.93;76.49
68439;SHT31;55421;51.600;5.718;2023-03-23T05:25:42;12.92;76.31
68439;SHT31;55421;51.600;5.718;2023-03-23T05:28:09;12.91;76.28
68439;SHT31;55421;51.600;5.718;2023-03-23T05:30:37;12.90;76.23
68439;SHT31;55421;51.600;5.718;2023-03-23T05:33:05;12.91;76.28
68439;SHT31;55421;51.600;5.718;2023-03-23T05:35:32;12.91;76.23
68439;SHT31;55421;51.600;5.718;2023-03-23T05:37:59;12.91;76.23
68439;SHT31;55421;51.600;5.718;2023-03-23T05:40:26;12.90;76.23
68439;SHT31;55421;51.600;5.718;2023-03-23T05:42:54;12.89;76.29
68439;SHT31;55421;51.600;5.718;2023-03-23T05:45:21;12.86;76.39
68439;SHT31;55421;51.600;5.718;2023-03-23T05:47:49;12.85;76.43
68439;SHT31;55421;51.600;5.718;2023-03-23T05:50:16;12.84;76.56
68439;SHT31;55421;51.600;5.718;2023-03-23T05:52:43;12.83;76.60
68439;SHT31;55421;51.600;5.718;2023-03-23T05:55:10;12.85;76.70
68439;SHT31;55421;51.600;5.718;2023-03-23T05:57:38;12.86;76.80
68439;SHT31;55421;51.600;5.718;2023-03-23T06:00:05;12.88;76.88
68439;SHT31;55421;51.600;5.718;2023-03-23T06:02:46;12.88;77.05
68439;SHT31;55421;51.600;5.718;2023-03-23T06:05:14;12.87;77.18
68439;SHT31;55421;51.600;5.718;2023-03-23T06:07:42;12.88;77.33
68439;SHT31;55421;51.600;5.718;2023-03-23T06:10:09;12.87;77.46
68439;SHT31;55421;51.600;5.718;2023-03-23T06:12:37;12.88;77.59
68439;SHT31;55421;51.600;5.718;2023-03-23T06:15:06;12.88;77.69
68439;SHT31;55421;51.600;5.718;2023-03-23T06:17:34;12.88;77.73
68439;SHT31;55421;51.600;5.718;2023-03-23T06:20:05;12.89;77.82
68439;SHT31;55421;51.600;5.718;2023-03-23T06:22:36;12.91;77.86
68439;SHT31;55421;51.600;5.718;2023-03-23T06:25:05;12.94;77.89
68439;SHT31;55421;51.600;5.718;2023-03-23T06:27:35;12.97;77.89
68439;SHT31;55421;51.600;5.718;2023-03-23T06:30:02;12.99;77.88
68439;SHT31;55421;51.600;5.718;2023-03-23T06:32:31;13.02;77.80
68439;SHT31;55421;51.600;5.718;2023-03-23T06:34:59;13.02;77.80
68439;SHT31;55421;51.600;5.718;2023-03-23T06:37:26;13.02;77.78
68439;SHT31;55421;51.600;5.718;2023-03-23T06:39:52;13.02;77.73
68439;SHT31;55421;51.600;5.718;2023-03-23T06:42:19;13.01;77.67
68439;SHT31;55421;51.600;5.718;2023-03-23T06:44:45;13.00;77.57
68439;SHT31;55421;51.600;5.718;2023-03-23T06:47:12;13.00;77.53
68439;SHT31;55421;51.600;5.718;2023-03-23T06:49:38;13.00;77.49
68439;SHT31;55421;51.600;5.718;2023-03-23T06:52:05;12.98;77.50
68439;SHT31;55421;51.600;5.718;2023-03-23T06:54:32;12.98;77.50
68439;SHT31;55421;51.600;5.718;2023-03-23T06:56:58;12.97;77.53
68439;SHT31;55421;51.600;5.718;2023-03-23T06:59:25;12.96;77.52
68439;SHT31;55421;51.600;5.718;2023-03-23T07:01:52;12.95;77.58
68439;SHT31;55421;51.600;5.718;2023-03-23T07:04:19;12.96;77.59
68439;SHT31;55421;51.600;5.718;2023-03-23T07:06:46;12.97;77.66
68439;SHT31;55421;51.600;5.718;2023-03-23T07:09:13;12.98;77.76
68439;SHT31;55421;51.600;5.718;2023-03-23T07:11:39;12.98;77.79
68439;SHT31;55421;51.600;5.718;2023-03-23T07:14:06;12.98;77.86
68439;SHT31;55421;51.600;5.718;2023-03-23T07:16:32;13.00;77.89
68439;SHT31;55421;51.600;5.718;2023-03-23T07:18:59;13.01;77.90
68439;SHT31;55421;51.600;5.718;2023-03-23T07:21:26;13.01;77.77
68439;SHT31;55421;51.600;5.718;2023-03-23T07:23:55;12.98;77.62
68439;SHT31;55421;51.600;5.718;2023-03-23T07:26:21;12.96;77.80
68439;SHT31;55421;51.600;5.718;2023-03-23T07:28:48;12.91;77.99
68439;SHT31;55421;51.600;5.718;2023-03-23T07:31:14;12.86;78.23
68439;SHT31;55421;51.600;5.718;2023-03-23T07:33:41;12.79;78.52
68439;SHT31;55421;51.600;5.718;2023-03-23T07:36:08;12.74;78.92
68439;SHT31;55421;51.600;5.718;2023-03-23T07:38:35;12.70;79.32
68439;SHT31;55421;51.600;5.718;2023-03-23T07:41:03;12.67;79.62
68439;SHT31;55421;51.600;5.718;2023-03-23T07:43:29;12.63;79.97
68439;SHT31;55421;51.600;5.718;2023-03-23T07:45:56;12.58;80.24
68439;SHT31;55421;51.600;5.718;2023-03-23T07:48:22;12.51;80.34
68439;SHT31;55421;51.600;5.718;2023-03-23T07:50:49;12.46;80.58
68439;SHT31;55421;51.600;5.718;2023-03-23T07:53:15;12.41;80.88
68439;SHT31;55421;51.600;5.718;2023-03-23T07:55:42;12.35;81.13
68439;SHT31;55421;51.600;5.718;2023-03-23T07:58:09;12.31;81.07
68439;SHT31;55421;51.600;5.718;2023-03-23T08:00:35;12.25;80.45
68439;SHT31;55421;51.600;5.718;2023-03-23T08:03:04;12.15;79.79
68439;SHT31;55421;51.600;5.718;2023-03-23T08:05:32;12.06;79.38
68439;SHT31;55421;51.600;5.718;2023-03-23T08:08:00;11.98;79.37
68439;SHT31;55421;51.600;5.718;2023-03-23T08:10:27;11.93;79.41
68439;SHT31;55421;51.600;5.718;2023-03-23T08:12:54;11.89;79.45
68439;SHT31;55421;51.600;5.718;2023-03-23T08:15:23;11.84;79.30
68439;SHT31;55421;51.600;5.718;2023-03-23T08:17:49;11.81;79.27
68439;SHT31;55421;51.600;5.718;2023-03-23T08:20:17;11.80;79.35
68439;SHT31;55421;51.600;5.718;2023-03-23T08:22:48;11.80;79.40
68439;SHT31;55421;51.600;5.718;2023-03-23T08:25:21;11.80;79.53
68439;SHT31;55421;51.600;5.718;2023-03-23T08:27:51;11.82;79.62
68439;SHT31;55421;51.600;5.718;2023-03-23T08:30:19;11.83;79.76
68439;SHT31;55421;51.600;5.718;2023-03-23T08:32:48;11.85;79.87
68439;SHT31;55421;51.600;5.718;2023-03-23T08:35:17;11.88;80.02
68439;SHT31;55421;51.600;5.718;2023-03-23T08:37:45;11.94;80.02
68439;SHT31;55421;51.600;5.718;2023-03-23T08:40:13;12.00;80.00
68439;SHT31;55421;51.600;5.718;2023-03-23T08:42:41;12.06;79.96
68439;SHT31;55421;51.600;5.718;2023-03-23T08:45:11;12.11;79.72
68439;SHT31;55421;51.600;5.718;2023-03-23T08:47:41;12.16;79.49
68439;SHT31;55421;51.600;5.718;2023-03-23T08:50:10;12.21;79.34
68439;SHT31;55421;51.600;5.718;2023-03-23T08:52:44;12.26;79.00
68439;SHT31;55421;51.600;5.718;2023-03-23T08:55:12;12.31;78.77
68439;SHT31;55421;51.600;5.718;2023-03-23T08:57:38;12.36;78.68
68439;SHT31;55421;51.600;5.718;2023-03-23T09:00:07;12.41;78.54
68439;SHT31;55421;51.600;5.718;2023-03-23T09:02:48;12.44;78.21
68439;SHT31;55421;51.600;5.718;2023-03-23T09:05:18;12.48;77.93
68439;SHT31;55421;51.600;5.718;2023-03-23T09:07:51;12.52;77.83
68439;SHT31;55421;51.600;5.718;2023-03-23T09:10:20;12.58;77.90
68439;SHT31;55421;51.600;5.718;2023-03-23T09:12:48;12.64;77.74
68439;SHT31;55421;51.600;5.718;2023-03-23T09:15:16;12.71;77.65
68439;SHT31;55421;51.600;5.718;2023-03-23T09:17:44;12.82;77.53
68439;SHT31;55421;51.600;5.718;2023-03-23T09:20:15;12.92;77.11
68439;SHT31;55421;51.600;5.718;2023-03-23T09:22:44;12.96;76.89
68439;SHT31;55421;51.600;5.718;2023-03-23T09:25:14;12.98;76.67
68439;SHT31;55421;51.600;5.718;2023-03-23T09:27:50;13.00;76.51
68439;SHT31;55421;51.600;5.718;2023-03-23T09:30:40;13.04;76.51
68439;SHT31;55421;51.600;5.718;2023-03-23T09:33:08;13.12;76.60
68439;SHT31;55421;51.600;5.718;2023-03-23T09:35:35;13.15;76.45
68439;SHT31;55421;51.600;5.718;2023-03-23T09:38:04;13.20;76.27
68439;SHT31;55421;51.600;5.718;2023-03-23T09:49:35;13.18;76.09
68439;SHT31;55421;51.600;5.718;2023-03-23T09:52:24;13.15;76.14
68439;SHT31;55421;51.600;5.718;2023-03-23T09:55:04;13.17;76.20
68439;SHT31;55421;51.600;5.718;2023-03-23T09:57:40;13.20;76.12
68439;SHT31;55421;51.600;5.718;2023-03-23T10:05:53;13.53;76.70
68439;SHT31;55421;51.600;5.718;2023-03-23T10:08:27;13.64;76.36
68439;SHT31;55421;51.600;5.718;2023-03-23T10:11:03;13.72;76.16
68439;SHT31;55421;51.600;5.718;2023-03-23T10:16:04;13.88;76.08
68439;SHT31;55421;51.600;5.718;2023-03-23T10:18:43;13.97;75.91
68439;SHT31;55421;51.600;5.718;2023-03-23T10:21:19;14.04;75.53
68439;SHT31;55421;51.600;5.718;2023-03-23T10:23:51;14.08;75.29
68439;SHT31;55421;51.600;5.718;2023-03-23T10:29:20;14.24;75.26
68439;SHT31;55421;51.600;5.718;2023-03-23T10:35:03;14.40;74.75
68439;SHT31;55421;51.600;5.718;2023-03-23T10:37:38;14.45;74.38
68439;SHT31;55421;51.600;5.718;2023-03-23T10:40:15;14.49;73.94
68439;SHT31;55421;51.600;5.718;2023-03-23T10:42:47;14.56;73.91
68439;SHT31;55421;51.600;5.718;2023-03-23T10:45:19;14.65;73.88
68439;SHT31;55421;51.600;5.718;2023-03-23T10:47:53;14.78;73.64
68439;SHT31;55421;51.600;5.718;2023-03-23T10:50:28;14.84;73.60
68439;SHT31;55421;51.600;5.718;2023-03-23T10:53:00;14.95;73.49
68439;SHT31;55421;51.600;5.718;2023-03-23T10:55:42;15.10;73.01
68439;SHT31;55421;51.600;5.718;2023-03-23T10:58:12;15.12;72.72
68439;SHT31;55421;51.600;5.718;2023-03-23T11:00:49;15.09;72.61
68439;SHT31;55421;51.600;5.718;2023-03-23T11:05:50;15.05;72.03
68439;SHT31;55421;51.600;5.718;2023-03-23T11:08:25;15.02;72.10
68439;SHT31;55421;51.600;5.718;2023-03-23T11:10:58;15.11;72.49
68439;SHT31;55421;51.600;5.718;2023-03-23T11:14:01;15.23;72.26
68439;SHT31;55421;51.600;5.718;2023-03-23T11:16:46;15.28;72.02
68439;SHT31;55421;51.600;5.718;2023-03-23T11:19:32;15.31;71.86
68439;SHT31;55421;51.600;5.718;2023-03-23T11:24:44;15.35;71.61
68439;SHT31;55421;51.600;5.718;2023-03-23T11:27:15;15.39;71.26
68439;SHT31;55421;51.600;5.718;2023-03-23T11:29:54;15.40;71.17
68439;SHT31;55421;51.600;5.718;2023-03-23T11:32:27;15.37;71.25
68439;SHT31;55421;51.600;5.718;2023-03-23T11:35:39;15.31;71.29
68439;SHT31;55421;51.600;5.718;2023-03-23T11:37:56;15.32;71.24
68439;SHT31;55421;51.600;5.718;2023-03-23T11:40:26;15.35;71.02
68439;SHT31;55421;51.600;5.718;2023-03-23T11:42:57;15.36;70.68
68439;SHT31;55421;51.600;5.718;2023-03-23T11:45:50;15.37;70.39
68439;SHT31;55421;51.600;5.718;2023-03-23T11:51:13;15.22;69.30
68439;SHT31;55421;51.600;5.718;2023-03-23T11:53:48;15.16;69.81
68439;SHT31;55421;51.600;5.718;2023-03-23T11:56:38;15.10;70.22
68439;SHT31;55421;51.600;5.718;2023-03-23T11:59:13;15.10;70.69
68439;SHT31;55421;51.600;5.718;2023-03-23T12:15:39;16.03;68.72
68439;SHT31;55421;51.600;5.718;2023-03-23T12:27:11;16.28;68.33
68439;SHT31;55421;51.600;5.718;2023-03-23T12:35:21;16.32;66.93
68439;SHT31;55421;51.600;5.718;2023-03-23T12:38:03;16.28;67.20
68439;SHT31;55421;51.600;5.718;2023-03-23T12:40:56;16.33;67.43
68439;SHT31;55421;51.600;5.718;2023-03-23T12:43:54;16.39;66.86
68439;SHT31;55421;51.600;5.718;2023-03-23T12:49:25;16.64;66.22
68439;SHT31;55421;51.600;5.718;2023-03-23T12:52:04;16.74;66.04
68439;SHT31;55421;51.600;5.718;2023-03-23T12:54:45;16.84;65.97
68439;SHT31;55421;51.600;5.718;2023-03-23T12:57:26;16.94;65.53
68439;SHT31;55421;51.600;5.718;2023-03-23T13:00:25;16.93;65.10
68439;SHT31;55421;51.600;5.718;2023-03-23T13:03:17;16.75;64.73
68439;SHT31;55421;51.600;5.718;2023-03-23T13:05:59;16.64;64.82
68439;SHT31;55421;51.600;5.718;2023-03-23T13:08:41;16.59;65.21
68439;SHT31;55421;51.600;5.718;2023-03-23T13:11:18;16.60;65.65
68439;SHT31;55421;51.600;5.718;2023-03-23T13:14:00;16.64;66.04
68439;SHT31;55421;51.600;5.718;2023-03-23T13:17:11;16.73;65.88
68439;SHT31;55421;51.600;5.718;2023-03-23T13:20:17;16.80;65.55
68439;SHT31;55421;51.600;5.718;2023-03-23T13:23:11;16.84;65.36
68439;SHT31;55421;51.600;5.718;2023-03-23T13:26:08;16.86;65.29
68439;SHT31;55421;51.600;5.718;2023-03-23T13:31:21;16.88;64.87
68439;SHT31;55421;51.600;5.718;2023-03-23T13:33:52;16.90;64.53
68439;SHT31;55421;51.600;5.718;2023-03-23T13:36:29;16.89;64.59
68439;SHT31;55421;51.600;5.718;2023-03-23T13:39:17;16.87;64.36
68439;SHT31;55421;51.600;5.718;2023-03-23T13:44:42;16.93;64.74
68439;SHT31;55421;51.600;5.718;2023-03-23T13:49:51;16.91;63.54
68439;SHT31;55421;51.600;5.718;2023-03-23T13:52:24;16.81;63.66
68439;SHT31;55421;51.600;5.718;2023-03-23T13:57:58;16.60;64.41
68439;SHT31;55421;51.600;5.718;2023-03-23T14:05:49;16.01;66.54
68439;SHT31;55421;51.600;5.718;2023-03-23T14:10:58;15.33;69.84
68439;SHT31;55421;51.600;5.718;2023-03-23T14:16:23;14.86;71.75
68439;SHT31;55421;51.600;5.718;2023-03-23T14:18:58;14.76;72.37
68439;SHT31;55421;51.600;5.718;2023-03-23T14:21:34;14.75;72.85
68439;SHT31;55421;51.600;5.718;2023-03-23T14:24:06;14.74;72.62
68439;SHT31;55421;51.600;5.718;2023-03-23T14:26:37;14.75;72.77
68439;SHT31;55421;51.600;5.718;2023-03-23T14:29:04;14.83;72.83
68439;SHT31;55421;51.600;5.718;2023-03-23T14:31:32;14.96;73.40
68439;SHT31;55421;51.600;5.718;2023-03-23T14:34:09;15.07;73.48
68439;SHT31;55421;51.600;5.718;2023-03-23T14:36:44;15.18;73.61
68439;SHT31;55421;51.600;5.718;2023-03-23T14:41:49;15.33;73.41
68439;SHT31;55421;51.600;5.718;2023-03-23T14:44:25;15.39;73.22
68439;SHT31;55421;51.600;5.718;2023-03-23T14:46:56;15.46;72.84
68439;SHT31;55421;51.600;5.718;2023-03-23T14:49:34;15.55;72.95
68439;SHT31;55421;51.600;5.718;2023-03-23T14:52:14;15.63;72.61
68439;SHT31;55421;51.600;5.718;2023-03-23T14:54:44;15.72;72.77
68439;SHT31;55421;51.600;5.718;2023-03-23T14:59:52;15.85;72.75
68439;SHT31;55421;51.600;5.718;2023-03-23T15:02:22;15.86;72.58
68439;SHT31;55421;51.600;5.718;2023-03-23T15:04:58;15.82;72.22
68439;SHT31;55421;51.600;5.718;2023-03-23T15:07:32;15.76;72.26
68439;SHT31;55421;51.600;5.718;2023-03-23T15:10:05;15.73;72.33
68439;SHT31;55421;51.600;5.718;2023-03-23T15:12:34;15.68;72.33
68439;SHT31;55421;51.600;5.718;2023-03-23T15:15:03;15.62;72.24
68439;SHT31;55421;51.600;5.718;2023-03-23T15:17:37;15.58;72.44
68439;SHT31;55421;51.600;5.718;2023-03-23T15:20:08;15.57;72.69
68439;SHT31;55421;51.600;5.718;2023-03-23T15:23:05;15.59;72.81
68439;SHT31;55421;51.600;5.718;2023-03-23T15:25:34;15.65;73.16
68439;SHT31;55421;51.600;5.718;2023-03-23T15:28:16;15.72;73.14
68439;SHT31;55421;51.600;5.718;2023-03-23T15:30:46;15.82;73.37
68439;SHT31;55421;51.600;5.718;2023-03-23T15:33:20;15.89;73.30
68439;SHT31;55421;51.600;5.718;2023-03-23T15:35:53;15.91;72.73
68439;SHT31;55421;51.600;5.718;2023-03-23T15:40:57;15.88;72.08
68439;SHT31;55421;51.600;5.718;2023-03-23T15:43:32;15.86;72.05
68439;SHT31;55421;51.600;5.718;2023-03-23T15:48:50;15.88;71.79
68439;SHT31;55421;51.600;5.718;2023-03-23T15:51:28;15.90;71.84
68439;SHT31;55421;51.600;5.718;2023-03-23T15:53:57;15.88;71.85
68439;SHT31;55421;51.600;5.718;2023-03-23T15:56:24;15.83;72.00
68439;SHT31;55421;51.600;5.718;2023-03-23T15:58:52;15.76;72.12
68439;SHT31;55421;51.600;5.718;2023-03-23T16:01:20;15.70;72.26
68439;SHT31;55421;51.600;5.718;2023-03-23T16:03:55;15.66;72.50
68439;SHT31;55421;51.600;5.718;2023-03-23T16:06:27;15.63;72.41
68439;SHT31;55421;51.600;5.718;2023-03-23T16:08:57;15.60;72.51
68439;SHT31;55421;51.600;5.718;2023-03-23T16:11:25;15.59;72.31
68439;SHT31;55421;51.600;5.718;2023-03-23T16:13:54;15.56;71.90
68439;SHT31;55421;51.600;5.718;2023-03-23T16:16:25;15.53;71.84
68439;SHT31;55421;51.600;5.718;2023-03-23T16:19:03;15.51;71.82
68439;SHT31;55421;51.600;5.718;2023-03-23T16:21:31;15.56;71.78
68439;SHT31;55421;51.600;5.718;2023-03-23T16:23:58;15.64;71.68
68439;SHT31;55421;51.600;5.718;2023-03-23T16:26:24;15.70;71.68
68439;SHT31;55421;51.600;5.718;2023-03-23T16:28:51;15.76;71.54
68439;SHT31;55421;51.600;5.718;2023-03-23T16:31:17;15.78;71.35
68439;SHT31;55421;51.600;5.718;2023-03-23T16:33:44;15.79;71.34
68439;SHT31;55421;51.600;5.718;2023-03-23T16:36:13;15.79;71.41
68439;SHT31;55421;51.600;5.718;2023-03-23T16:38:40;15.75;71.05
68439;SHT31;55421;51.600;5.718;2023-03-23T16:41:07;15.70;70.86
68439;SHT31;55421;51.600;5.718;2023-03-23T16:43:34;15.65;70.72
68439;SHT31;55421;51.600;5.718;2023-03-23T16:46:01;15.60;70.83
68439;SHT31;55421;51.600;5.718;2023-03-23T16:48:27;15.54;71.08
68439;SHT31;55421;51.600;5.718;2023-03-23T16:50:54;15.48;71.21
68439;SHT31;55421;51.600;5.718;2023-03-23T16:53:21;15.43;71.48
68439;SHT31;55421;51.600;5.718;2023-03-23T16:55:49;15.39;71.77
68439;SHT31;55421;51.600;5.718;2023-03-23T16:58:17;15.36;72.04
68439;SHT31;55421;51.600;5.718;2023-03-23T17:00:46;15.33;72.39
68439;SHT31;55421;51.600;5.718;2023-03-23T17:03:16;15.31;72.54
68439;SHT31;55421;51.600;5.718;2023-03-23T17:05:46;15.29;72.75
68439;SHT31;55421;51.600;5.718;2023-03-23T17:08:15;15.25;72.90
68439;SHT31;55421;51.600;5.718;2023-03-23T17:10:43;15.19;73.05
68439;SHT31;55421;51.600;5.718;2023-03-23T17:13:10;15.13;73.19
68439;SHT31;55421;51.600;5.718;2023-03-23T17:15:41;15.08;73.32
68439;SHT31;55421;51.600;5.718;2023-03-23T17:18:08;15.03;73.38
68439;SHT31;55421;51.600;5.718;2023-03-23T17:20:35;14.97;73.56
68439;SHT31;55421;51.600;5.718;2023-03-23T17:23:02;14.90;73.64
68439;SHT31;55421;51.600;5.718;2023-03-23T17:25:30;14.86;73.72
68439;SHT31;55421;51.600;5.718;2023-03-23T17:27:57;14.83;73.94
68439;SHT31;55421;51.600;5.718;2023-03-23T17:30:25;14.82;74.00
68439;SHT31;55421;51.600;5.718;2023-03-23T17:32:52;14.85;74.10
68439;SHT31;55421;51.600;5.718;2023-03-23T17:35:19;14.88;74.19
68439;SHT31;55421;51.600;5.718;2023-03-23T17:37:46;14.89;74.24
68439;SHT31;55421;51.600;5.718;2023-03-23T17:40:12;14.87;74.26
68439;SHT31;55421;51.600;5.718;2023-03-23T17:42:39;14.87;74.25
68439;SHT31;55421;51.600;5.718;2023-03-23T17:45:06;14.84;74.27
68439;SHT31;55421;51.600;5.718;2023-03-23T17:47:34;14.80;74.27